San Antonio, Texas
Traffic Map
Current Weather Conditions
San Antonio, Texas
Overcast
Overcast

Feels Like: 7°
Wind Chill: Ceiling: 1700
Heat Index: Visibility: 10mi
Dew Point: Wind: 5mph
Humidity: 71% Direction: 50° (NE)
Pressure: 30.34in Gusts: 0mph
Raw Report DataKSKF 101858Z AUTO 05004KT 10SM OVC017 09/04 A3034 RMK AO2 SLP277 T00850036 $
Traffic Incident Summary
Active as of:
Severity:
Category:
InformationThere was an issue retrieving the traffic information for this location. Please try a different location or try again shortly.
Advertisements
Track Severe Weather on mobile